createdAt,value
2023-04-21T00:00:34.397Z,988.00
2023-04-21T00:01:34.565Z,988.00
2023-04-21T00:02:36.041Z,992.00
2023-04-21T00:03:34.907Z,985.00
2023-04-21T00:04:34.637Z,972.00
2023-04-21T00:05:34.847Z,981.00
2023-04-21T00:06:34.758Z,980.00
2023-04-21T00:07:34.778Z,967.00
2023-04-21T00:08:34.825Z,969.00
2023-04-21T00:09:34.865Z,973.00
2023-04-21T00:10:34.930Z,958.00
2023-04-21T00:11:34.995Z,965.00
2023-04-21T00:12:35.081Z,974.00
2023-04-21T00:13:35.097Z,974.00
2023-04-21T00:14:35.142Z,964.00
2023-04-21T00:15:35.234Z,960.00
2023-04-21T00:16:35.381Z,955.00
2023-04-21T00:17:35.419Z,961.00
2023-04-21T00:18:35.406Z,957.00
2023-04-21T00:19:35.435Z,960.00
2023-04-21T00:20:35.478Z,948.00
2023-04-21T00:21:35.528Z,956.00
2023-04-21T00:22:35.564Z,956.00
2023-04-21T00:23:35.630Z,957.00
2023-04-21T00:24:35.674Z,958.00
2023-04-21T00:25:35.773Z,961.00
2023-04-21T00:26:35.811Z,949.00
2023-04-21T00:27:35.845Z,940.00
2023-04-21T00:28:35.925Z,950.00
2023-04-21T00:29:36.001Z,942.00
2023-04-21T00:30:36.021Z,954.00
2023-04-21T00:31:36.136Z,939.00
2023-04-21T00:32:36.170Z,938.00
2023-04-21T00:33:36.225Z,948.00
2023-04-21T00:34:36.253Z,948.00
2023-04-21T00:35:36.318Z,933.00
2023-04-21T00:36:36.391Z,946.00
2023-04-21T00:37:36.462Z,939.00
2023-04-21T00:38:36.529Z,931.00
2023-04-21T00:39:36.543Z,927.00
2023-04-21T00:40:36.631Z,935.00
2023-04-21T00:41:36.681Z,937.00
2023-04-21T00:42:36.754Z,927.00
2023-04-21T00:43:36.783Z,929.00
2023-04-21T00:44:36.848Z,927.00
2023-04-21T00:45:36.912Z,933.00
2023-04-21T00:46:37.014Z,932.00
2023-04-21T00:47:37.044Z,932.00
2023-04-21T00:48:37.094Z,934.00
2023-04-21T00:49:37.111Z,922.00
2023-04-21T00:50:37.174Z,921.00
2023-04-21T00:51:37.238Z,935.00
2023-04-21T00:52:37.303Z,924.00
2023-04-21T00:53:37.332Z,923.00
2023-04-21T00:54:37.401Z,917.00
2023-04-21T00:55:37.521Z,915.00
2023-04-21T00:56:37.538Z,907.00
2023-04-21T00:57:37.564Z,919.00
2023-04-21T00:58:37.670Z,911.00
2023-04-21T00:59:37.685Z,923.00
2023-04-21T01:00:37.871Z,909.00
2023-04-21T01:01:37.830Z,916.00
2023-04-21T01:02:38.008Z,920.00
2023-04-21T01:03:38.052Z,905.00
2023-04-21T01:04:37.978Z,911.00
2023-04-21T01:05:38.022Z,914.00
2023-04-21T01:06:38.580Z,903.00
2023-04-21T01:07:38.136Z,909.00
2023-04-21T01:08:38.210Z,903.00
2023-04-21T01:09:38.280Z,902.00
2023-04-21T01:10:38.362Z,901.00
2023-04-21T01:11:38.374Z,904.00
2023-04-21T01:12:38.444Z,895.00
2023-04-21T01:13:38.542Z,903.00
2023-04-21T01:14:38.596Z,888.00
2023-04-21T01:15:38.652Z,890.00
2023-04-21T01:16:38.728Z,895.00
2023-04-21T01:17:38.886Z,891.00
2023-04-21T01:18:38.806Z,903.00
2023-04-21T01:19:38.833Z,899.00
2023-04-21T01:20:38.899Z,892.00
2023-04-21T01:21:38.970Z,894.00
2023-04-21T01:22:39.041Z,895.00
2023-04-21T01:23:39.104Z,889.00
2023-04-21T01:24:39.319Z,876.00
2023-04-21T01:25:39.242Z,893.00
2023-04-21T01:26:39.267Z,891.00
2023-04-21T01:27:39.327Z,886.00
2023-04-21T01:28:39.405Z,889.00
2023-04-21T01:29:39.420Z,884.00
2023-04-21T01:30:39.491Z,879.00
2023-04-21T01:31:39.639Z,885.00
2023-04-21T01:32:39.659Z,882.00
2023-04-21T01:33:39.699Z,890.00
2023-04-21T01:34:39.759Z,878.00
2023-04-21T01:35:39.836Z,881.00
2023-04-21T01:36:39.861Z,868.00
2023-04-21T01:37:39.924Z,871.00
2023-04-21T01:38:40.008Z,880.00
2023-04-21T01:39:40.094Z,877.00
2023-04-21T01:40:40.088Z,880.00
2023-04-21T01:41:40.564Z,874.00
2023-04-21T01:42:40.239Z,874.00
2023-04-21T01:43:40.308Z,877.00
2023-04-21T01:44:40.324Z,861.00
2023-04-21T01:45:40.412Z,873.00
2023-04-21T01:46:40.454Z,859.00
2023-04-21T01:47:40.576Z,867.00
2023-04-21T01:48:40.603Z,870.00
2023-04-21T01:49:40.662Z,862.00
2023-04-21T01:50:40.687Z,862.00
2023-04-21T01:51:40.804Z,862.00
2023-04-21T01:52:40.817Z,855.00
2023-04-21T01:53:40.871Z,852.00
2023-04-21T01:54:40.914Z,858.00
2023-04-21T01:55:40.987Z,862.00
2023-04-21T01:56:41.067Z,857.00
2023-04-21T01:57:41.132Z,857.00
2023-04-21T01:58:41.187Z,856.00
2023-04-21T01:59:41.267Z,852.00
2023-04-21T02:00:41.330Z,862.00
2023-04-21T02:01:41.450Z,854.00
2023-04-21T02:02:41.463Z,866.00
2023-04-21T02:03:41.588Z,859.00
2023-04-21T02:04:41.739Z,846.00
2023-04-21T02:05:41.579Z,845.00
2023-04-21T02:06:41.700Z,848.00
2023-04-21T02:07:41.782Z,851.00
2023-04-21T02:08:41.787Z,844.00
2023-04-21T02:09:41.813Z,832.00
2023-04-21T02:10:41.877Z,842.00
2023-04-21T02:11:41.945Z,842.00
2023-04-21T02:12:42.031Z,843.00
2023-04-21T02:13:42.084Z,838.00
2023-04-21T02:14:42.163Z,839.00
2023-04-21T02:15:42.270Z,823.00
2023-04-21T02:16:42.246Z,833.00
2023-04-21T02:17:42.366Z,834.00
2023-04-21T02:18:42.387Z,822.00
2023-04-21T02:19:42.451Z,845.00
2023-04-21T02:20:42.524Z,834.00
2023-04-21T02:21:42.581Z,838.00
2023-04-21T02:22:42.612Z,831.00
2023-04-21T02:23:42.676Z,832.00
2023-04-21T02:24:42.761Z,823.00
2023-04-21T02:25:42.825Z,823.00
2023-04-21T02:26:42.898Z,826.00
2023-04-21T02:27:42.900Z,812.00
2023-04-21T02:28:42.977Z,820.00
2023-04-21T02:29:43.049Z,817.00
2023-04-21T02:30:43.133Z,828.00
2023-04-21T02:31:57.324Z,818.00
2023-04-21T02:32:44.257Z,820.00
2023-04-21T02:33:43.169Z,821.00
2023-04-21T02:34:43.136Z,822.00
2023-04-21T02:35:43.144Z,829.00
2023-04-21T02:36:43.146Z,827.00
2023-04-21T02:37:43.148Z,827.00
2023-04-21T02:38:43.117Z,822.00
2023-04-21T02:39:43.116Z,810.00
2023-04-21T02:40:44.116Z,822.00
2023-04-21T02:41:43.257Z,826.00
2023-04-21T02:42:43.313Z,822.00
2023-04-21T02:43:43.390Z,817.00
2023-04-21T02:44:43.397Z,813.00
2023-04-21T02:45:43.519Z,812.00
2023-04-21T02:46:43.594Z,812.00
2023-04-21T02:47:43.605Z,794.00
2023-04-21T02:48:43.666Z,817.00
2023-04-21T02:49:43.715Z,809.00
2023-04-21T02:50:43.790Z,790.00
2023-04-21T02:51:43.819Z,807.00
2023-04-21T02:52:43.880Z,809.00
2023-04-21T02:53:43.957Z,803.00
2023-04-21T02:54:44.091Z,809.00
2023-04-21T02:55:44.084Z,793.00
2023-04-21T02:56:44.160Z,801.00
2023-04-21T02:57:44.169Z,797.00
2023-04-21T02:58:44.246Z,804.00
2023-04-21T02:59:44.318Z,801.00
2023-04-21T03:00:44.342Z,798.00
2023-04-21T03:01:44.406Z,793.00
2023-04-21T03:02:44.601Z,794.00
2023-04-21T03:03:44.653Z,788.00
2023-04-21T03:04:44.564Z,796.00
2023-04-21T03:05:44.638Z,801.00
2023-04-21T03:06:44.689Z,807.00
2023-04-21T03:07:44.756Z,796.00
2023-04-21T03:08:44.793Z,801.00
2023-04-21T03:09:44.873Z,790.00
2023-04-21T03:10:44.984Z,793.00
2023-04-21T03:11:44.993Z,789.00
2023-04-21T03:12:45.068Z,785.00
2023-04-21T03:13:45.149Z,787.00
2023-04-21T03:14:45.211Z,786.00
2023-04-21T03:15:45.223Z,770.00
2023-04-21T03:16:45.753Z,789.00
2023-04-21T03:17:45.420Z,783.00
2023-04-21T03:18:45.436Z,789.00
2023-04-21T03:19:45.506Z,786.00
2023-04-21T03:20:47.164Z,783.00
2023-04-21T03:21:45.598Z,776.00
2023-04-21T03:22:45.668Z,786.00
2023-04-21T03:23:45.682Z,776.00
2023-04-21T03:24:45.762Z,784.00
2023-04-21T03:25:45.826Z,776.00
2023-04-21T03:26:45.894Z,776.00
2023-04-21T03:27:45.919Z,781.00
2023-04-21T03:28:45.936Z,767.00
2023-04-21T03:29:46.006Z,782.00
2023-04-21T03:30:46.067Z,770.00
2023-04-21T03:31:46.127Z,776.00
2023-04-21T03:32:46.184Z,773.00
2023-04-21T03:33:46.235Z,779.00
2023-04-21T03:34:46.310Z,766.00
2023-04-21T03:35:46.376Z,769.00
2023-04-21T03:36:46.441Z,779.00
2023-04-21T03:37:46.460Z,763.00
2023-04-21T03:38:46.522Z,761.00
2023-04-21T03:39:46.566Z,765.00
2023-04-21T03:40:46.667Z,761.00
2023-04-21T03:41:47.157Z,772.00
2023-04-21T03:42:46.702Z,764.00
2023-04-21T03:43:46.786Z,767.00
2023-04-21T03:44:46.798Z,763.00
2023-04-21T03:45:46.940Z,764.00
2023-04-21T03:46:46.978Z,756.00
2023-04-21T03:47:47.053Z,756.00
2023-04-21T03:48:47.011Z,751.00
2023-04-21T03:49:47.036Z,752.00
2023-04-21T03:50:47.065Z,760.00
2023-04-21T03:51:47.175Z,759.00
2023-04-21T03:52:47.222Z,744.00
2023-04-21T03:53:47.270Z,750.00
2023-04-21T03:54:47.300Z,751.00
2023-04-21T03:55:47.423Z,753.00
2023-04-21T03:56:47.452Z,752.00
2023-04-21T03:57:47.518Z,749.00
2023-04-21T03:58:47.576Z,735.00
2023-04-21T03:59:47.653Z,741.00
2023-04-21T04:00:47.700Z,765.00
2023-04-21T04:01:47.754Z,757.00
2023-04-21T04:02:47.922Z,765.00
2023-04-21T04:03:47.922Z,748.00
2023-04-21T04:04:47.999Z,749.00
2023-04-21T04:05:47.997Z,749.00
2023-04-21T04:06:48.070Z,755.00
2023-04-21T04:07:48.100Z,749.00
2023-04-21T04:08:48.165Z,753.00
2023-04-21T04:09:48.246Z,747.00
2023-04-21T04:10:48.260Z,750.00
2023-04-21T04:11:49.162Z,741.00
2023-04-21T04:12:48.383Z,739.00
2023-04-21T04:13:48.460Z,734.00
2023-04-21T04:14:48.555Z,747.00
2023-04-21T04:15:48.675Z,741.00
2023-04-21T04:16:48.638Z,736.00
2023-04-21T04:17:48.803Z,742.00
2023-04-21T04:18:48.766Z,730.00
2023-04-21T04:19:48.826Z,747.00
2023-04-21T04:20:48.910Z,742.00
2023-04-21T04:21:49.262Z,740.00
2023-04-21T04:22:49.047Z,740.00
2023-04-21T04:23:49.064Z,726.00
2023-04-21T04:24:49.142Z,730.00
2023-04-21T04:25:49.236Z,737.00
2023-04-21T04:26:49.260Z,739.00
2023-04-21T04:27:49.334Z,727.00
2023-04-21T04:28:49.406Z,727.00
2023-04-21T04:29:49.472Z,732.00
2023-04-21T04:30:49.593Z,735.00
2023-04-21T04:31:49.735Z,736.00
2023-04-21T04:32:49.672Z,730.00
2023-04-21T04:33:49.703Z,728.00
2023-04-21T04:34:49.776Z,725.00
2023-04-21T04:35:49.913Z,725.00
2023-04-21T04:36:50.244Z,725.00
2023-04-21T04:37:49.939Z,723.00
2023-04-21T04:38:50.017Z,724.00
2023-04-21T04:39:50.063Z,725.00
2023-04-21T04:40:50.137Z,722.00
2023-04-21T04:41:50.637Z,731.00
2023-04-21T04:42:50.291Z,711.00
2023-04-21T04:43:50.312Z,727.00
2023-04-21T04:44:50.447Z,721.00
2023-04-21T04:45:50.447Z,720.00
2023-04-21T04:46:50.541Z,710.00
2023-04-21T04:47:50.601Z,724.00
2023-04-21T04:48:50.635Z,730.00
2023-04-21T04:49:50.727Z,714.00
2023-04-21T04:50:50.821Z,711.00
2023-04-21T04:51:50.853Z,711.00
2023-04-21T04:52:50.918Z,718.00
2023-04-21T04:53:50.975Z,719.00
2023-04-21T04:54:51.026Z,712.00
2023-04-21T04:55:51.100Z,708.00
2023-04-21T04:56:52.209Z,696.00
2023-04-21T04:57:51.242Z,692.00
2023-04-21T04:58:51.276Z,695.00
2023-04-21T04:59:51.421Z,686.00
2023-04-21T05:00:51.399Z,696.00
2023-04-21T05:01:51.467Z,682.00
2023-04-21T05:02:51.576Z,664.00
2023-04-21T05:03:51.655Z,665.00
2023-04-21T05:04:51.826Z,659.00
2023-04-21T05:05:51.679Z,654.00
2023-04-21T05:06:51.745Z,652.00
2023-04-21T05:07:51.774Z,646.00
2023-04-21T05:08:51.850Z,642.00
2023-04-21T05:09:51.901Z,642.00
2023-04-21T05:10:51.988Z,641.00
2023-04-21T05:11:52.064Z,633.00
2023-04-21T05:12:52.104Z,631.00
2023-04-21T05:13:52.155Z,632.00
2023-04-21T05:14:52.231Z,630.00
2023-04-21T05:15:53.139Z,630.00
2023-04-21T05:16:52.403Z,622.00
2023-04-21T05:17:52.458Z,630.00
2023-04-21T05:18:52.466Z,618.00
2023-04-21T05:19:52.514Z,619.00
2023-04-21T05:20:55.208Z,620.00
2023-04-21T05:21:52.586Z,617.00
2023-04-21T05:22:52.608Z,625.00
2023-04-21T05:23:52.588Z,622.00
2023-04-21T05:24:52.629Z,620.00
2023-04-21T05:25:52.556Z,624.00
2023-04-21T05:26:52.702Z,619.00
2023-04-21T05:27:52.791Z,621.00
2023-04-21T05:28:52.526Z,622.00
2023-04-21T05:29:52.524Z,626.00
2023-04-21T05:30:52.625Z,633.00
2023-04-21T05:31:52.615Z,644.00
2023-04-21T05:32:52.537Z,655.00
2023-04-21T05:33:53.177Z,733.00
2023-04-21T05:34:52.493Z,791.00
2023-04-21T05:35:52.527Z,834.00
2023-04-21T05:36:52.708Z,840.00
2023-04-21T05:37:52.485Z,847.00
2023-04-21T05:38:53.211Z,835.00
2023-04-21T05:39:52.461Z,881.00
2023-04-21T05:40:54.224Z,883.00
2023-04-21T05:41:52.772Z,908.00
2023-04-21T05:42:53.290Z,916.00
2023-04-21T05:43:52.480Z,946.00
2023-04-21T05:44:52.417Z,953.00
2023-04-21T05:45:52.510Z,954.00
2023-04-21T05:46:52.402Z,970.00
2023-04-21T05:47:52.415Z,969.00
2023-04-21T05:48:52.482Z,968.00
2023-04-21T05:49:53.170Z,948.00
2023-04-21T05:50:52.384Z,954.00
2023-04-21T05:51:52.639Z,989.00
2023-04-21T05:52:52.493Z,992.00
2023-04-21T05:53:52.540Z,961.00
2023-04-21T05:54:52.608Z,928.00
2023-04-21T05:55:52.676Z,910.00
2023-04-21T05:56:53.176Z,889.00
2023-04-21T05:57:52.742Z,891.00
2023-04-21T05:58:52.849Z,869.00
2023-04-21T05:59:53.177Z,890.00
2023-04-21T06:00:52.993Z,889.00
2023-04-21T06:01:53.692Z,876.00
2023-04-21T06:02:53.175Z,861.00
2023-04-21T06:03:53.219Z,847.00
2023-04-21T06:04:53.433Z,852.00
2023-04-21T06:05:53.241Z,860.00
2023-04-21T06:06:53.302Z,841.00
2023-04-21T06:07:53.329Z,848.00
2023-04-21T06:08:53.366Z,847.00
2023-04-21T06:09:53.430Z,853.00
2023-04-21T06:10:53.490Z,835.00
2023-04-21T06:11:53.648Z,833.00
2023-04-21T06:12:53.607Z,830.00
2023-04-21T06:13:54.261Z,816.00
2023-04-21T06:14:53.694Z,821.00
2023-04-21T06:15:53.775Z,807.00
2023-04-21T06:16:53.790Z,836.00
2023-04-21T06:17:53.898Z,852.00
2023-04-21T06:18:53.896Z,854.00
2023-04-21T06:19:54.737Z,853.00
2023-04-21T06:20:54.001Z,842.00
2023-04-21T06:21:54.108Z,837.00
2023-04-21T06:22:54.185Z,844.00
2023-04-21T06:23:54.304Z,837.00
2023-04-21T06:24:54.207Z,842.00
2023-04-21T06:25:54.450Z,846.00
2023-04-21T06:26:54.530Z,834.00
2023-04-21T06:27:54.509Z,825.00
2023-04-21T06:28:54.397Z,834.00
2023-04-21T06:29:54.520Z,827.00
2023-04-21T06:30:54.495Z,851.00
2023-04-21T06:31:54.670Z,848.00
2023-04-21T06:32:54.752Z,855.00
2023-04-21T06:33:54.660Z,856.00
2023-04-21T06:34:54.756Z,845.00
2023-04-21T06:35:54.760Z,922.00
2023-04-21T06:36:54.823Z,929.00
2023-04-21T06:37:54.844Z,1023.00
2023-04-21T06:38:55.087Z,993.00
2023-04-21T06:39:54.931Z,1006.00
2023-04-21T06:40:54.991Z,940.00
2023-04-21T06:41:55.748Z,927.00
2023-04-21T06:42:55.080Z,990.00
2023-04-21T06:43:55.077Z,1011.00
2023-04-21T06:44:55.729Z,1018.00
2023-04-21T06:45:55.213Z,1040.00
2023-04-21T06:46:56.748Z,1046.00
2023-04-21T06:47:56.205Z,1069.00
2023-04-21T06:48:56.186Z,1071.00
2023-04-21T06:49:55.299Z,1076.00
2023-04-21T06:50:55.271Z,1067.00
2023-04-21T06:51:55.771Z,1092.00
2023-04-21T06:52:55.371Z,1089.00
2023-04-21T06:53:55.412Z,1092.00
2023-04-21T06:54:55.441Z,1103.00
2023-04-21T06:55:55.510Z,1108.00
2023-04-21T06:56:55.542Z,1104.00
2023-04-21T06:57:55.611Z,1108.00
2023-04-21T06:58:55.648Z,1111.00
2023-04-21T06:59:55.642Z,1098.00
2023-04-21T07:00:55.744Z,1071.00
2023-04-21T07:01:55.753Z,1095.00
2023-04-21T07:02:55.857Z,1102.00
2023-04-21T07:03:56.027Z,1093.00
2023-04-21T07:04:55.835Z,1109.00
2023-04-21T07:05:56.710Z,1091.00
2023-04-21T07:06:55.912Z,1095.00
2023-04-21T07:07:56.003Z,1096.00
2023-04-21T07:08:56.007Z,1089.00
2023-04-21T07:09:56.084Z,1091.00
2023-04-21T07:10:56.154Z,1085.00
2023-04-21T07:11:56.142Z,1100.00
2023-04-21T07:12:56.718Z,1087.00
2023-04-21T07:13:56.196Z,1086.00
2023-04-21T07:14:56.230Z,1080.00
2023-04-21T07:15:56.305Z,1089.00
2023-04-21T07:16:56.363Z,1096.00
2023-04-21T07:17:56.412Z,1087.00
2023-04-21T07:18:56.915Z,1082.00
2023-04-21T07:19:56.488Z,1090.00
2023-04-21T07:20:56.489Z,1095.00
2023-04-21T07:21:56.717Z,1081.00
2023-04-21T07:22:56.752Z,1082.00
2023-04-21T07:23:56.607Z,1080.00
2023-04-21T07:24:57.247Z,1083.00
2023-04-21T07:25:56.622Z,1072.00
2023-04-21T07:26:56.718Z,1072.00
2023-04-21T07:27:57.228Z,1065.00
2023-04-21T07:28:56.753Z,1130.00
2023-04-21T07:29:56.904Z,1250.00
2023-04-21T07:30:56.883Z,1242.00
2023-04-21T07:31:57.234Z,1193.00
2023-04-21T07:32:56.924Z,1157.00
2023-04-21T07:33:56.945Z,1161.00
2023-04-21T07:34:56.944Z,1175.00
2023-04-21T07:35:57.021Z,1178.00
2023-04-21T07:36:57.704Z,1177.00
2023-04-21T07:37:57.713Z,1162.00
2023-04-21T07:38:57.090Z,1135.00
2023-04-21T07:39:59.739Z,1121.00
2023-04-21T07:40:57.383Z,1156.00
2023-04-21T07:41:57.389Z,1200.00
2023-04-21T07:42:58.224Z,1229.00
2023-04-21T07:43:57.492Z,1210.00
2023-04-21T07:44:57.516Z,1191.00
2023-04-21T07:45:57.588Z,1179.00
2023-04-21T07:46:57.603Z,1166.00
2023-04-21T07:47:57.770Z,1131.00
2023-04-21T07:48:57.904Z,1065.00
2023-04-21T07:49:58.671Z,1001.00
2023-04-21T07:50:57.918Z,986.00
2023-04-21T07:51:57.792Z,932.00
2023-04-21T07:52:57.879Z,885.00
2023-04-21T07:53:57.818Z,881.00
2023-04-21T07:54:57.833Z,865.00
2023-04-21T07:55:57.895Z,834.00
2023-04-21T07:56:57.928Z,766.00
2023-04-21T07:57:57.987Z,711.00
2023-04-21T07:58:58.013Z,700.00
2023-04-21T07:59:58.098Z,695.00
2023-04-21T08:00:58.104Z,674.00
2023-04-21T08:01:58.164Z,649.00
2023-04-21T08:02:58.272Z,629.00
2023-04-21T08:03:58.321Z,633.00
2023-04-21T08:04:58.382Z,640.00
2023-04-21T08:05:58.513Z,640.00
2023-04-21T08:06:58.521Z,647.00
2023-04-21T08:07:58.509Z,645.00
2023-04-21T08:08:58.558Z,653.00
2023-04-21T08:09:58.613Z,645.00
2023-04-21T08:10:58.605Z,641.00
2023-04-21T08:11:58.667Z,648.00
2023-04-21T08:12:58.695Z,646.00
2023-04-21T08:13:58.794Z,639.00
2023-04-21T08:14:58.835Z,639.00
2023-04-21T08:15:59.775Z,637.00
2023-04-21T08:16:58.830Z,619.00
2023-04-21T08:17:59.024Z,625.00
2023-04-21T08:18:58.999Z,613.00
2023-04-21T08:19:59.832Z,608.00
2023-04-21T08:20:59.715Z,621.00
2023-04-21T08:21:59.030Z,665.00
2023-04-21T08:22:59.097Z,655.00
2023-04-21T08:23:58.999Z,657.00
2023-04-21T08:24:59.071Z,663.00
2023-04-21T08:25:59.110Z,652.00
2023-04-21T08:26:59.083Z,663.00
2023-04-21T08:27:59.093Z,702.00
2023-04-21T08:28:59.187Z,719.00
2023-04-21T08:29:59.724Z,720.00
2023-04-21T08:30:59.394Z,658.00
2023-04-21T08:31:59.253Z,650.00
2023-04-21T08:32:59.253Z,645.00
2023-04-21T08:34:02.256Z,653.00
2023-04-21T08:34:59.250Z,651.00
2023-04-21T08:36:05.359Z,646.00
2023-04-21T08:37:00.209Z,646.00
2023-04-21T08:37:59.213Z,646.00
2023-04-21T08:38:59.187Z,645.00
2023-04-21T08:39:59.167Z,635.00
2023-04-21T08:41:01.759Z,652.00
2023-04-21T08:41:59.742Z,771.00
2023-04-21T08:42:59.684Z,773.00
2023-04-21T08:44:00.476Z,774.00
2023-04-21T08:44:59.497Z,744.00
2023-04-21T08:45:59.695Z,766.00
2023-04-21T08:46:59.603Z,680.00
2023-04-21T08:47:59.681Z,653.00
2023-04-21T08:49:00.215Z,634.00
2023-04-21T08:49:59.736Z,625.00
2023-04-21T08:50:59.795Z,622.00
2023-04-21T08:51:59.883Z,607.00
2023-04-21T08:52:59.911Z,583.00
2023-04-21T08:53:59.966Z,566.00
2023-04-21T08:55:00.746Z,545.00
2023-04-21T08:56:10.901Z,534.00
2023-04-21T08:57:11.978Z,535.00
2023-04-21T08:58:01.098Z,535.00
2023-04-21T08:59:00.089Z,502.00
2023-04-21T09:00:00.145Z,488.00
2023-04-21T09:01:00.084Z,532.00
2023-04-21T09:02:00.212Z,545.00
2023-04-21T09:03:02.248Z,522.00
2023-04-21T09:04:00.435Z,597.00
2023-04-21T09:05:00.502Z,601.00
2023-04-21T09:06:00.853Z,625.00
2023-04-21T09:07:00.456Z,536.00
2023-04-21T09:08:00.431Z,497.00
2023-04-21T09:09:00.483Z,486.00
2023-04-21T09:10:00.525Z,471.00
2023-04-21T09:11:00.534Z,470.00
2023-04-21T09:12:01.326Z,525.00
2023-04-21T09:13:00.623Z,526.00
2023-04-21T09:14:00.660Z,543.00
2023-04-21T09:15:00.693Z,529.00
2023-04-21T09:16:00.734Z,495.00
2023-04-21T09:17:00.877Z,536.00
2023-04-21T09:18:00.913Z,559.00
2023-04-21T09:19:00.950Z,512.00
2023-04-21T09:20:01.015Z,497.00
2023-04-21T09:21:01.020Z,500.00
2023-04-21T09:22:01.092Z,515.00
2023-04-21T09:23:01.169Z,514.00
2023-04-21T09:24:01.188Z,511.00
2023-04-21T09:25:01.261Z,524.00
2023-04-21T09:26:01.331Z,540.00
2023-04-21T09:27:01.351Z,581.00
2023-04-21T09:28:01.363Z,565.00
2023-04-21T09:29:01.395Z,599.00
2023-04-21T09:30:01.441Z,650.00
2023-04-21T09:31:01.545Z,687.00
2023-04-21T09:32:01.546Z,730.00
2023-04-21T09:33:03.322Z,843.00
2023-04-21T09:34:01.847Z,848.00
2023-04-21T09:35:01.612Z,874.00
2023-04-21T09:36:01.553Z,925.00
2023-04-21T09:37:01.758Z,1001.00
2023-04-21T09:38:01.556Z,1077.00
2023-04-21T09:41:01.612Z,1085.00
2023-04-21T09:42:01.713Z,1100.00
2023-04-21T09:43:01.745Z,1130.00
2023-04-21T09:44:01.926Z,1112.00
2023-04-21T09:46:01.506Z,1084.00
2023-04-21T09:47:01.499Z,1091.00
2023-04-21T09:48:01.518Z,1100.00
2023-04-21T09:49:02.629Z,1134.00
2023-04-21T09:50:01.457Z,1080.00
2023-04-21T09:51:25.600Z,1017.00
2023-04-21T09:53:01.481Z,1005.00
2023-04-21T09:54:01.439Z,1020.00
2023-04-21T09:55:01.424Z,919.00
2023-04-21T09:56:01.412Z,762.00
2023-04-21T09:57:01.466Z,705.00
2023-04-21T09:58:01.880Z,788.00
2023-04-21T09:59:01.394Z,758.00
2023-04-21T10:00:01.396Z,732.00
2023-04-21T10:01:01.380Z,666.00
2023-04-21T10:02:01.685Z,695.00
2023-04-21T10:03:01.493Z,659.00
2023-04-21T10:04:01.607Z,746.00
2023-04-21T10:05:01.498Z,682.00
2023-04-21T10:06:01.518Z,632.00
2023-04-21T10:07:01.376Z,608.00
2023-04-21T10:08:01.346Z,605.00
2023-04-21T10:09:01.311Z,564.00
2023-04-21T10:10:01.334Z,564.00
2023-04-21T10:11:01.297Z,528.00
2023-04-21T10:12:01.317Z,506.00
2023-04-21T10:13:01.288Z,510.00
2023-04-21T10:14:01.325Z,512.00
2023-04-21T10:15:01.275Z,529.00
2023-04-21T10:16:01.310Z,487.00
2023-04-21T10:17:01.254Z,465.00
2023-04-21T10:18:01.387Z,417.00
2023-04-21T10:19:01.260Z,504.00
2023-04-21T10:20:01.261Z,460.00
2023-04-21T10:21:01.227Z,477.00
2023-04-21T10:22:01.200Z,570.00
2023-04-21T10:23:01.270Z,631.00
2023-04-21T10:24:01.234Z,654.00
2023-04-21T10:25:01.206Z,601.00
2023-04-21T10:26:01.171Z,638.00
2023-04-21T10:27:01.195Z,622.00
2023-04-21T10:28:01.305Z,650.00
2023-04-21T10:29:01.277Z,959.00
2023-04-21T10:30:01.758Z,650.00
2023-04-21T10:31:01.142Z,875.00
2023-04-21T10:32:01.957Z,935.00
2023-04-21T10:33:01.203Z,1060.00
2023-04-21T10:34:01.143Z,1128.00
2023-04-21T10:35:01.180Z,1173.00
2023-04-21T10:36:01.208Z,1202.00
2023-04-21T10:37:01.829Z,1266.00
2023-04-21T10:38:01.344Z,1324.00
2023-04-21T10:39:01.277Z,1147.00
2023-04-21T10:40:01.242Z,1019.00
2023-04-21T10:41:01.807Z,982.00
2023-04-21T10:42:01.275Z,918.00
2023-04-21T10:43:01.793Z,877.00
2023-04-21T10:44:01.780Z,893.00
2023-04-21T10:45:04.341Z,914.00
2023-04-21T10:46:01.366Z,931.00
2023-04-21T10:47:01.418Z,884.00
2023-04-21T10:48:01.354Z,834.00
2023-04-21T10:49:01.316Z,789.00
2023-04-21T10:50:01.278Z,746.00
2023-04-21T10:51:01.313Z,742.00
2023-04-21T10:52:01.277Z,672.00
2023-04-21T10:53:01.315Z,640.00
2023-04-21T10:54:01.284Z,652.00
2023-04-21T10:55:01.273Z,669.00
2023-04-21T10:56:01.318Z,673.00
2023-04-21T10:57:01.218Z,707.00
2023-04-21T10:58:01.268Z,649.00
2023-04-21T10:59:01.226Z,652.00
2023-04-21T11:00:01.233Z,644.00
2023-04-21T11:01:01.235Z,678.00
2023-04-21T11:02:01.342Z,762.00
2023-04-21T11:03:01.430Z,749.00
2023-04-21T11:04:01.387Z,740.00
2023-04-21T11:05:01.382Z,847.00
2023-04-21T11:06:01.166Z,908.00
2023-04-21T11:07:01.162Z,1003.00
2023-04-21T11:08:01.155Z,1081.00
2023-04-21T11:09:01.160Z,1091.00
2023-04-21T11:10:01.749Z,1174.00
2023-04-21T11:11:01.204Z,1135.00
2023-04-21T11:12:01.118Z,1116.00
2023-04-21T11:13:01.127Z,1096.00
2023-04-21T11:14:01.203Z,1175.00
2023-04-21T11:15:01.149Z,1344.00
2023-04-21T11:16:01.131Z,1393.00
2023-04-21T11:17:01.284Z,1393.00
2023-04-21T11:18:01.257Z,1225.00
2023-04-21T11:19:01.126Z,1205.00
2023-04-21T11:20:01.082Z,1249.00
2023-04-21T11:21:01.054Z,1309.00
2023-04-21T11:22:01.043Z,1263.00
2023-04-21T11:23:01.048Z,1167.00
2023-04-21T11:24:01.029Z,1199.00
2023-04-21T11:25:01.048Z,1043.00
2023-04-21T11:26:01.056Z,941.00
2023-04-21T11:27:01.018Z,953.00
2023-04-21T11:28:01.820Z,879.00
2023-04-21T11:29:01.302Z,806.00
2023-04-21T11:30:01.025Z,804.00
2023-04-21T11:31:01.051Z,797.00
2023-04-21T11:32:01.237Z,781.00
2023-04-21T11:33:01.062Z,725.00
2023-04-21T11:34:02.287Z,823.00
2023-04-21T11:35:00.981Z,957.00
2023-04-21T11:36:00.972Z,1081.00
2023-04-21T11:37:00.960Z,1174.00
2023-04-21T11:38:00.952Z,1273.00
2023-04-21T11:39:00.955Z,1373.00
2023-04-21T11:40:01.011Z,1459.00
2023-04-21T11:41:00.942Z,1467.00
2023-04-21T11:42:00.915Z,1484.00
2023-04-21T11:43:00.941Z,1519.00
2023-04-21T11:44:00.945Z,1523.00
2023-04-21T11:45:00.907Z,1559.00
2023-04-21T11:46:00.894Z,1596.00
2023-04-21T11:47:00.912Z,1614.00
2023-04-21T11:48:00.947Z,1620.00
2023-04-21T11:49:01.016Z,1662.00
2023-04-21T11:50:00.997Z,1718.00
2023-04-21T11:51:00.859Z,1776.00
2023-04-21T11:52:00.849Z,1837.00
2023-04-21T11:53:00.834Z,1877.00
2023-04-21T11:54:00.848Z,1884.00
2023-04-21T11:55:00.829Z,1916.00
2023-04-21T11:56:00.881Z,1910.00
2023-04-21T11:57:02.586Z,1908.00
2023-04-21T11:58:00.835Z,1938.00
2023-04-21T11:59:00.855Z,1955.00
2023-04-21T12:00:00.896Z,1954.00
2023-04-21T12:01:00.870Z,1955.00
2023-04-21T12:02:00.893Z,1962.00
2023-04-21T12:03:00.995Z,1978.00
2023-04-21T12:04:00.936Z,1969.00
2023-04-21T12:05:00.915Z,1978.00
2023-04-21T12:06:00.778Z,2003.00
2023-04-21T12:07:00.771Z,2002.00
2023-04-21T12:08:00.797Z,2004.00
2023-04-21T12:09:00.755Z,1999.00
2023-04-21T12:10:00.757Z,2002.00
2023-04-21T12:11:00.748Z,2004.00
2023-04-21T12:12:00.726Z,2005.00
2023-04-21T12:13:00.737Z,2013.00
2023-04-21T12:14:00.750Z,2035.00
2023-04-21T12:15:00.749Z,2016.00
2023-04-21T12:16:00.799Z,1990.00
2023-04-21T12:17:00.808Z,1967.00
2023-04-21T12:18:00.821Z,1968.00
2023-04-21T12:19:00.871Z,1969.00
2023-04-21T12:20:00.845Z,1938.00
2023-04-21T12:21:00.869Z,1964.00
2023-04-21T12:22:00.908Z,1964.00
2023-04-21T12:23:00.963Z,1962.00
2023-04-21T12:24:01.857Z,1927.00
2023-04-21T12:25:01.025Z,1849.00
2023-04-21T12:26:01.024Z,1794.00
2023-04-21T12:27:01.066Z,1709.00
2023-04-21T12:28:01.108Z,1699.00